sensor_id;sensor_type;location;lat;lon;timestamp;pressure;altitude;pressure_sealevel;temperature;humidity
35655;BME280;21773;50.010;19.972;2023-02-07T00:02:30;101095.00;;;0.52;45.84
35655;BME280;21773;50.010;19.972;2023-02-07T00:05:33;101105.16;;;0.46;45.55
35655;BME280;21773;50.010;19.972;2023-02-07T00:08:38;101111.00;;;0.38;45.84
35655;BME280;21773;50.010;19.972;2023-02-07T00:11:42;101108.09;;;0.28;45.37
35655;BME280;21773;50.010;19.972;2023-02-07T00:14:47;101082.84;;;-0.04;45.65
35655;BME280;21773;50.010;19.972;2023-02-07T00:17:50;101111.00;;;0.11;45.53
35655;BME280;21773;50.010;19.972;2023-02-07T00:20:58;101092.91;;;-0.09;45.91
35655;BME280;21773;50.010;19.972;2023-02-07T00:24:01;101104.91;;;-0.04;45.83
35655;BME280;21773;50.010;19.972;2023-02-07T00:27:05;101073.44;;;-0.22;45.88
35655;BME280;21773;50.010;19.972;2023-02-07T00:30:11;101072.84;;;-0.13;46.24
35655;BME280;21773;50.010;19.972;2023-02-07T00:33:15;101091.44;;;-0.27;46.61
35655;BME280;21773;50.010;19.972;2023-02-07T00:36:21;101096.09;;;-0.31;46.64
35655;BME280;21773;50.010;19.972;2023-02-07T00:39:24;101089.44;;;-0.24;46.60
35655;BME280;21773;50.010;19.972;2023-02-07T00:42:27;101076.50;;;-0.28;46.61
35655;BME280;21773;50.010;19.972;2023-02-07T00:45:32;101069.34;;;-0.40;46.48
35655;BME280;21773;50.010;19.972;2023-02-07T00:48:36;101076.91;;;-0.49;46.63
35655;BME280;21773;50.010;19.972;2023-02-07T00:51:42;101074.09;;;-0.46;46.74
35655;BME280;21773;50.010;19.972;2023-02-07T00:54:45;101068.88;;;-0.47;46.88
35655;BME280;21773;50.010;19.972;2023-02-07T00:57:48;101067.16;;;-0.48;46.77
35655;BME280;21773;50.010;19.972;2023-02-07T01:00:53;101072.88;;;-0.54;46.92
35655;BME280;21773;50.010;19.972;2023-02-07T01:03:57;101058.03;;;-0.57;46.92
35655;BME280;21773;50.010;19.972;2023-02-07T01:07:00;101060.75;;;-0.58;46.82
35655;BME280;21773;50.010;19.972;2023-02-07T01:10:04;101054.50;;;-0.57;46.89
35655;BME280;21773;50.010;19.972;2023-02-07T01:13:08;101053.97;;;-0.62;46.97
35655;BME280;21773;50.010;19.972;2023-02-07T01:16:21;101055.19;;;-0.68;47.20
35655;BME280;21773;50.010;19.972;2023-02-07T01:19:25;101063.13;;;-0.68;47.10
35655;BME280;21773;50.010;19.972;2023-02-07T01:22:28;101057.41;;;-0.74;46.94
35655;BME280;21773;50.010;19.972;2023-02-07T01:25:32;101046.25;;;-0.79;46.77
35655;BME280;21773;50.010;19.972;2023-02-07T01:28:37;101053.13;;;-0.77;47.10
35655;BME280;21773;50.010;19.972;2023-02-07T01:39:04;101006.66;;;-1.23;46.49
35655;BME280;21773;50.010;19.972;2023-02-07T01:42:11;101019.03;;;-1.24;47.05
35655;BME280;21773;50.010;19.972;2023-02-07T01:45:23;101016.56;;;-1.27;46.88
35655;BME280;21773;50.010;19.972;2023-02-07T01:48:29;101043.22;;;-1.16;47.06
35655;BME280;21773;50.010;19.972;2023-02-07T01:51:34;101039.06;;;-1.20;47.19
35655;BME280;21773;50.010;19.972;2023-02-07T01:54:40;101016.13;;;-1.34;47.09
35655;BME280;21773;50.010;19.972;2023-02-07T01:57:44;101023.97;;;-1.32;46.89
35655;BME280;21773;50.010;19.972;2023-02-07T02:00:48;101028.50;;;-1.34;47.13
35655;BME280;21773;50.010;19.972;2023-02-07T02:03:54;101027.25;;;-1.43;47.39
35655;BME280;21773;50.010;19.972;2023-02-07T02:06:58;101024.69;;;-1.58;47.15
35655;BME280;21773;50.010;19.972;2023-02-07T02:10:06;101020.91;;;-1.68;47.58
35655;BME280;21773;50.010;19.972;2023-02-07T02:13:20;101023.47;;;-1.67;47.51
35655;BME280;21773;50.010;19.972;2023-02-07T02:16:31;101034.13;;;-1.68;47.62
35655;BME280;21773;50.010;19.972;2023-02-07T02:20:02;101049.06;;;-1.67;47.80
35655;BME280;21773;50.010;19.972;2023-02-07T02:23:19;101023.16;;;-1.77;47.99
35655;BME280;21773;50.010;19.972;2023-02-07T02:26:54;101021.38;;;-1.76;47.85
35655;BME280;21773;50.010;19.972;2023-02-07T02:33:41;101061.72;;;-1.58;48.10
35655;BME280;21773;50.010;19.972;2023-02-07T02:36:51;101063.50;;;-1.59;47.63
35655;BME280;21773;50.010;19.972;2023-02-07T02:40:04;101052.72;;;-1.70;47.50
35655;BME280;21773;50.010;19.972;2023-02-07T02:43:17;101052.81;;;-1.71;47.53
35655;BME280;21773;50.010;19.972;2023-02-07T02:46:25;101045.72;;;-1.71;47.71
35655;BME280;21773;50.010;19.972;2023-02-07T02:49:33;101036.16;;;-1.88;48.13
35655;BME280;21773;50.010;19.972;2023-02-07T02:52:38;101017.50;;;-2.00;48.45
35655;BME280;21773;50.010;19.972;2023-02-07T02:56:11;101025.91;;;-2.08;48.81
35655;BME280;21773;50.010;19.972;2023-02-07T02:59:31;101060.88;;;-1.89;48.46
35655;BME280;21773;50.010;19.972;2023-02-07T03:02:49;101070.03;;;-1.94;48.85
35655;BME280;21773;50.010;19.972;2023-02-07T03:06:04;101070.03;;;-1.94;49.07
35655;BME280;21773;50.010;19.972;2023-02-07T03:09:17;101070.59;;;-1.89;48.79
35655;BME280;21773;50.010;19.972;2023-02-07T03:12:26;101064.38;;;-1.88;49.12
35655;BME280;21773;50.010;19.972;2023-02-07T03:15:44;101067.59;;;-1.83;49.25
35655;BME280;21773;50.010;19.972;2023-02-07T03:18:56;101061.03;;;-1.76;49.36
35655;BME280;21773;50.010;19.972;2023-02-07T03:22:07;101054.88;;;-1.77;49.71
35655;BME280;21773;50.010;19.972;2023-02-07T03:25:18;101058.28;;;-1.75;49.82
35655;BME280;21773;50.010;19.972;2023-02-07T03:28:25;101072.44;;;-1.76;50.00
35655;BME280;21773;50.010;19.972;2023-02-07T03:42:56;101064.66;;;-1.49;49.85
35655;BME280;21773;50.010;19.972;2023-02-07T03:46:01;101067.03;;;-1.44;49.75
35655;BME280;21773;50.010;19.972;2023-02-07T03:49:05;101033.91;;;-1.65;49.51
35655;BME280;21773;50.010;19.972;2023-02-07T03:52:10;101064.88;;;-1.38;49.54
35655;BME280;21773;50.010;19.972;2023-02-07T03:55:13;101066.47;;;-1.21;49.12
35655;BME280;21773;50.010;19.972;2023-02-07T03:58:18;101064.78;;;-1.22;49.39
35655;BME280;21773;50.010;19.972;2023-02-07T04:24:17;101072.47;;;-1.03;48.09
35655;BME280;21773;50.010;19.972;2023-02-07T04:27:21;101010.34;;;-1.40;48.26
35655;BME280;21773;50.010;19.972;2023-02-07T04:30:24;101066.47;;;-1.07;48.16
35655;BME280;21773;50.010;19.972;2023-02-07T05:12:39;101051.38;;;-1.33;47.73
35655;BME280;21773;50.010;19.972;2023-02-07T05:19:20;100935.84;;;-2.05;47.44
35655;BME280;21773;50.010;19.972;2023-02-07T05:22:24;101087.28;;;-1.15;47.35
35655;BME280;21773;50.010;19.972;2023-02-07T05:25:28;101083.13;;;-1.33;47.65
35655;BME280;21773;50.010;19.972;2023-02-07T05:39:08;101092.22;;;-1.23;47.85
35655;BME280;21773;50.010;19.972;2023-02-07T05:42:11;101089.28;;;-1.18;47.59
35655;BME280;21773;50.010;19.972;2023-02-07T05:45:15;101084.44;;;-1.26;47.53
35655;BME280;21773;50.010;19.972;2023-02-07T05:48:18;101085.22;;;-1.24;47.53
35655;BME280;21773;50.010;19.972;2023-02-07T05:51:21;101079.56;;;-1.18;47.62
35655;BME280;21773;50.010;19.972;2023-02-07T05:57:45;101082.19;;;-1.04;47.02
35655;BME280;21773;50.010;19.972;2023-02-07T06:04:31;101052.31;;;-1.20;47.05
35655;BME280;21773;50.010;19.972;2023-02-07T06:07:35;101085.00;;;-0.93;47.25
35655;BME280;21773;50.010;19.972;2023-02-07T06:10:38;101080.00;;;-0.97;47.21
35655;BME280;21773;50.010;19.972;2023-02-07T06:13:43;101082.09;;;-0.88;46.93
35655;BME280;21773;50.010;19.972;2023-02-07T06:16:46;101101.94;;;-0.67;46.64
35655;BME280;21773;50.010;19.972;2023-02-07T06:19:50;101111.09;;;-0.58;46.56
35655;BME280;21773;50.010;19.972;2023-02-07T06:22:54;101117.16;;;-0.56;46.95
35655;BME280;21773;50.010;19.972;2023-02-07T06:25:57;101118.00;;;-0.56;46.71
35655;BME280;21773;50.010;19.972;2023-02-07T06:29:02;101121.53;;;-0.55;46.68
35655;BME280;21773;50.010;19.972;2023-02-07T06:32:06;100995.69;;;-1.46;46.48
35655;BME280;21773;50.010;19.972;2023-02-07T06:35:09;101125.69;;;-0.51;46.94
35655;BME280;21773;50.010;19.972;2023-02-07T06:38:13;101125.94;;;-0.41;46.79
35655;BME280;21773;50.010;19.972;2023-02-07T06:41:16;101122.91;;;-0.35;46.69
35655;BME280;21773;50.010;19.972;2023-02-07T06:44:21;101127.53;;;-0.39;46.56
35655;BME280;21773;50.010;19.972;2023-02-07T06:47:25;101125.66;;;-0.37;46.39
35655;BME280;21773;50.010;19.972;2023-02-07T06:50:39;101132.44;;;-0.33;46.73
35655;BME280;21773;50.010;19.972;2023-02-07T06:53:42;101120.06;;;-0.47;46.32
35655;BME280;21773;50.010;19.972;2023-02-07T06:56:48;101108.44;;;-0.44;46.43
35655;BME280;21773;50.010;19.972;2023-02-07T07:03:37;101115.13;;;-0.38;46.62
35655;BME280;21773;50.010;19.972;2023-02-07T07:17:52;101107.81;;;-0.21;47.08
35655;BME280;21773;50.010;19.972;2023-02-07T07:20:57;101104.16;;;-0.32;47.20
35655;BME280;21773;50.010;19.972;2023-02-07T07:24:00;101115.91;;;-0.36;47.34
35655;BME280;21773;50.010;19.972;2023-02-07T07:27:04;101098.38;;;-0.39;47.19
35655;BME280;21773;50.010;19.972;2023-02-07T07:30:08;101104.75;;;-0.41;47.44
35655;BME280;21773;50.010;19.972;2023-02-07T07:33:12;101106.25;;;-0.37;47.78
35655;BME280;21773;50.010;19.972;2023-02-07T07:36:17;101124.19;;;-0.28;47.94
35655;BME280;21773;50.010;19.972;2023-02-07T07:39:20;101117.88;;;-0.26;47.65
35655;BME280;21773;50.010;19.972;2023-02-07T07:42:23;101118.03;;;-0.29;48.18
35655;BME280;21773;50.010;19.972;2023-02-07T07:45:41;101128.81;;;-0.18;47.68
35655;BME280;21773;50.010;19.972;2023-02-07T07:48:44;101130.13;;;-0.11;47.61
35655;BME280;21773;50.010;19.972;2023-02-07T07:51:50;101117.69;;;0.04;47.56
35655;BME280;21773;50.010;19.972;2023-02-07T07:54:54;101086.09;;;-0.13;47.84
35655;BME280;21773;50.010;19.972;2023-02-07T07:57:57;101112.63;;;0.14;47.79
35655;BME280;21773;50.010;19.972;2023-02-07T08:16:02;101108.25;;;0.52;47.63
35655;BME280;21773;50.010;19.972;2023-02-07T08:19:05;101098.28;;;0.56;47.66
35655;BME280;21773;50.010;19.972;2023-02-07T08:22:09;101097.78;;;0.63;47.44
35655;BME280;21773;50.010;19.972;2023-02-07T08:25:13;101098.31;;;0.68;47.22
35655;BME280;21773;50.010;19.972;2023-02-07T08:51:07;101084.94;;;0.82;47.86
35655;BME280;21773;50.010;19.972;2023-02-07T08:54:11;101072.78;;;0.78;47.68
35655;BME280;21773;50.010;19.972;2023-02-07T08:57:14;101086.28;;;0.88;47.85
35655;BME280;21773;50.010;19.972;2023-02-07T09:15:00;101068.34;;;1.04;48.36
35655;BME280;21773;50.010;19.972;2023-02-07T10:18:57;101070.34;;;1.62;48.49
35655;BME280;21773;50.010;19.972;2023-02-07T10:25:50;101019.19;;;1.22;48.63
35655;BME280;21773;50.010;19.972;2023-02-07T10:32:42;101066.44;;;1.43;49.32
35655;BME280;21773;50.010;19.972;2023-02-07T10:35:53;101049.47;;;1.33;49.14
35655;BME280;21773;50.010;19.972;2023-02-07T10:46:32;101038.66;;;1.59;48.96
35655;BME280;21773;50.010;19.972;2023-02-07T10:49:37;100983.84;;;1.46;48.89
35655;BME280;21773;50.010;19.972;2023-02-07T10:52:45;101013.09;;;1.69;49.10
35655;BME280;21773;50.010;19.972;2023-02-07T10:55:51;101020.97;;;1.71;49.03
35655;BME280;21773;50.010;19.972;2023-02-07T10:58:56;101052.28;;;2.02;49.23
35655;BME280;21773;50.010;19.972;2023-02-07T11:02:00;100946.69;;;1.33;49.31
35655;BME280;21773;50.010;19.972;2023-02-07T11:08:49;101027.44;;;1.91;49.73
35655;BME280;21773;50.010;19.972;2023-02-07T11:15:47;101008.41;;;2.08;49.28
35655;BME280;21773;50.010;19.972;2023-02-07T11:18:57;101001.91;;;2.12;49.48
35655;BME280;21773;50.010;19.972;2023-02-07T11:22:08;101039.25;;;2.45;49.08
35655;BME280;21773;50.010;19.972;2023-02-07T11:47:28;101019.69;;;3.13;47.91
35655;BME280;21773;50.010;19.972;2023-02-07T12:01:53;101000.56;;;3.62;47.24
35655;BME280;21773;50.010;19.972;2023-02-07T12:05:11;101029.84;;;3.84;46.58
35655;BME280;21773;50.010;19.972;2023-02-07T12:08:18;100846.31;;;2.72;46.20
35655;BME280;21773;50.010;19.972;2023-02-07T12:11:28;100900.38;;;3.48;45.52
35655;BME280;21773;50.010;19.972;2023-02-07T12:14:39;100933.38;;;3.68;45.91
35655;BME280;21773;50.010;19.972;2023-02-07T12:17:59;100990.09;;;4.02;45.45
35655;BME280;21773;50.010;19.972;2023-02-07T12:24:56;100979.13;;;4.16;45.41
35655;BME280;21773;50.010;19.972;2023-02-07T12:28:09;100915.25;;;3.83;45.00
35655;BME280;21773;50.010;19.972;2023-02-07T12:31:21;100975.19;;;4.20;45.62
35655;BME280;21773;50.010;19.972;2023-02-07T12:34:32;100967.28;;;4.30;45.40
35655;BME280;21773;50.010;19.972;2023-02-07T12:37:41;100972.34;;;4.33;45.22
35655;BME280;21773;50.010;19.972;2023-02-07T12:40:52;100975.41;;;4.28;45.01
35655;BME280;21773;50.010;19.972;2023-02-07T12:44:03;100976.72;;;4.13;45.45
35655;BME280;21773;50.010;19.972;2023-02-07T12:47:14;100973.66;;;4.18;45.41
35655;BME280;21773;50.010;19.972;2023-02-07T12:50:37;100986.44;;;4.14;45.60
35655;BME280;21773;50.010;19.972;2023-02-07T12:53:59;100992.84;;;4.12;45.72
35655;BME280;21773;50.010;19.972;2023-02-07T12:57:10;100997.16;;;4.03;46.25
35655;BME280;21773;50.010;19.972;2023-02-07T13:00:20;100999.09;;;4.01;46.62
35655;BME280;21773;50.010;19.972;2023-02-07T13:03:40;100996.41;;;4.01;46.64
35655;BME280;21773;50.010;19.972;2023-02-07T13:06:59;101003.19;;;3.84;46.94
35655;BME280;21773;50.010;19.972;2023-02-07T13:10:19;101015.97;;;3.70;47.10
35655;BME280;21773;50.010;19.972;2023-02-07T13:13:28;101007.13;;;3.58;47.82
35655;BME280;21773;50.010;19.972;2023-02-07T13:16:37;101007.97;;;3.59;47.78
35655;BME280;21773;50.010;19.972;2023-02-07T21:44:34;101194.19;;;4.09;50.25
35655;BME280;21773;50.010;19.972;2023-02-07T21:47:38;101173.69;;;3.87;50.45
35655;BME280;21773;50.010;19.972;2023-02-07T21:50:42;101212.50;;;4.03;50.56
35655;BME280;21773;50.010;19.972;2023-02-07T21:53:47;101204.25;;;4.06;50.59
35655;BME280;21773;50.010;19.972;2023-02-07T21:56:51;101122.69;;;3.59;50.43
35655;BME280;21773;50.010;19.972;2023-02-07T21:59:56;101205.09;;;4.06;50.36
35655;BME280;21773;50.010;19.972;2023-02-07T22:02:59;101199.63;;;4.08;50.37
35655;BME280;21773;50.010;19.972;2023-02-07T22:09:49;101206.56;;;3.99;50.38
35655;BME280;21773;50.010;19.972;2023-02-07T22:12:52;101197.72;;;3.99;50.59
35655;BME280;21773;50.010;19.972;2023-02-07T22:15:57;101188.25;;;3.83;50.60
35655;BME280;21773;50.010;19.972;2023-02-07T22:19:03;101202.94;;;3.89;50.93
35655;BME280;21773;50.010;19.972;2023-02-07T22:29:37;101191.31;;;3.79;51.18
35655;BME280;21773;50.010;19.972;2023-02-07T22:40:06;101168.28;;;3.56;51.18
35655;BME280;21773;50.010;19.972;2023-02-07T22:43:12;101204.88;;;3.87;50.89
35655;BME280;21773;50.010;19.972;2023-02-07T22:46:18;101165.25;;;3.71;51.31
35655;BME280;21773;50.010;19.972;2023-02-07T22:49:22;101092.25;;;3.28;51.14
35655;BME280;21773;50.010;19.972;2023-02-07T22:52:25;101188.75;;;3.88;51.18
35655;BME280;21773;50.010;19.972;2023-02-07T23:40:30;101187.03;;;3.87;51.46
